createdAt,value
2022-10-26T00:01:22.758Z,101566.53
2022-10-26T00:03:50.964Z,101561.28
2022-10-26T00:06:21.385Z,101560.44
2022-10-26T00:08:51.326Z,101559.56
2022-10-26T00:11:20.698Z,101561.34
2022-10-26T00:13:49.977Z,101553.47
2022-10-26T00:16:21.087Z,101552.63
2022-10-26T00:18:49.797Z,101568.38
2022-10-26T00:21:19.186Z,101557.88
2022-10-26T00:23:47.559Z,101550.03
2022-10-26T00:26:17.028Z,101553.56
2022-10-26T00:28:45.213Z,101557.06
2022-10-26T00:31:16.467Z,101557.03
2022-10-26T00:33:44.768Z,101549.19
2022-10-26T00:36:16.678Z,101549.19
2022-10-26T00:38:49.686Z,101547.44
2022-10-26T00:41:22.089Z,101543.00
2022-10-26T00:43:50.750Z,101545.59
2022-10-26T00:46:23.344Z,101549.97
2022-10-26T00:48:58.035Z,101541.22
2022-10-26T00:51:32.789Z,101544.72
2022-10-26T00:54:04.755Z,101543.81
2022-10-26T00:56:36.136Z,101542.03
2022-10-26T00:59:08.038Z,101543.75
2022-10-26T01:01:39.626Z,101541.97
2022-10-26T01:04:08.373Z,101536.75
2022-10-26T01:06:38.833Z,101544.56
2022-10-26T01:09:07.338Z,101536.69
2022-10-26T01:11:36.776Z,101533.16
2022-10-26T01:14:09.127Z,101538.38
2022-10-26T01:16:57.872Z,101538.34
2022-10-26T01:20:15.011Z,101533.91
2022-10-26T01:22:50.878Z,101535.63
2022-10-26T01:25:48.891Z,101529.47
2022-10-26T01:28:34.962Z,101533.81
2022-10-26T01:31:08.294Z,101534.66
2022-10-26T01:33:41.011Z,101529.41
2022-10-26T01:36:14.671Z,101521.53
2022-10-26T01:38:53.659Z,101513.63
2022-10-26T01:41:29.251Z,101515.34
2022-10-26T01:44:02.324Z,101514.47
2022-10-26T01:46:38.402Z,101505.69
2022-10-26T01:49:11.786Z,101499.53
2022-10-26T01:51:42.907Z,101496.03
2022-10-26T01:54:12.319Z,101499.47
2022-10-26T01:56:43.010Z,101493.34
2022-10-26T01:59:37.122Z,101483.69
2022-10-26T02:02:40.229Z,101483.66
2022-10-26T02:05:38.724Z,101494.09
2022-10-26T02:08:22.311Z,101489.72
2022-10-26T02:11:03.701Z,101486.19
2022-10-26T02:13:41.898Z,101485.31
2022-10-26T02:16:23.142Z,101473.97
2022-10-26T02:19:02.202Z,101480.91
2022-10-26T02:21:37.263Z,101474.81
2022-10-26T02:24:09.577Z,101469.56
2022-10-26T02:26:38.511Z,101473.03
2022-10-26T02:29:11.219Z,101467.75
2022-10-26T02:31:41.621Z,101464.22
2022-10-26T02:34:14.821Z,101458.97
2022-10-26T02:36:46.103Z,101462.44
2022-10-26T02:39:17.909Z,101467.66
2022-10-26T02:41:47.219Z,101465.00
2022-10-26T02:44:21.113Z,101460.59
2022-10-26T02:46:52.289Z,101464.88
2022-10-26T02:49:22.701Z,101462.22
2022-10-26T02:51:55.269Z,101455.16
2022-10-26T02:54:32.969Z,101463.00
2022-10-26T02:57:05.780Z,101453.34
2022-10-26T02:59:38.254Z,101456.88
2022-10-26T03:02:07.029Z,101461.25
2022-10-26T03:04:36.954Z,101457.75
2022-10-26T03:07:05.050Z,101455.13
2022-10-26T03:09:33.201Z,101451.66
2022-10-26T03:12:01.300Z,101450.75
2022-10-26T03:14:29.394Z,101442.88
2022-10-26T03:16:57.478Z,101442.00
2022-10-26T03:19:25.889Z,101446.38
2022-10-26T03:21:55.309Z,101430.63
2022-10-26T03:24:23.406Z,101438.47
2022-10-26T03:26:51.499Z,101434.97
2022-10-26T03:29:19.610Z,101437.59
2022-10-26T03:31:48.846Z,101440.19
2022-10-26T03:34:16.894Z,101437.63
2022-10-26T03:40:58.060Z,101433.25
2022-10-26T03:43:26.354Z,101436.81
2022-10-26T03:45:54.679Z,101428.13
2022-10-26T03:48:22.997Z,101426.41
2022-10-26T03:50:51.130Z,101427.31
2022-10-26T03:53:19.379Z,101428.22
2022-10-26T03:55:47.613Z,101426.44
2022-10-26T03:58:17.610Z,101429.94
2022-10-26T04:00:45.887Z,101427.28
2022-10-26T04:03:14.047Z,101429.03
2022-10-26T04:05:42.208Z,101427.25
2022-10-26T04:08:10.593Z,101426.38
2022-10-26T04:10:39.095Z,101424.66
2022-10-26T04:13:07.214Z,101425.53
2022-10-26T04:15:36.738Z,101413.28
2022-10-26T04:18:05.846Z,101427.25
2022-10-26T04:20:36.640Z,101415.03
2022-10-26T04:23:07.490Z,101422.94
2022-10-26T04:25:36.091Z,101420.31
2022-10-26T04:28:06.373Z,101416.84
2022-10-26T04:30:37.498Z,101416.84
2022-10-26T04:33:06.826Z,101411.63
2022-10-26T04:35:35.130Z,101420.34
2022-10-26T04:38:06.370Z,101420.31
2022-10-26T04:40:36.421Z,101421.19
2022-10-26T04:43:04.585Z,101425.53
2022-10-26T04:45:32.996Z,101425.53
2022-10-26T04:48:05.795Z,101426.41
2022-10-26T04:50:34.876Z,101428.22
2022-10-26T04:53:03.352Z,101428.25
2022-10-26T04:55:31.549Z,101428.28
2022-10-26T04:58:01.426Z,101430.09
2022-10-26T05:00:32.741Z,101432.78
2022-10-26T05:03:05.124Z,101437.19
2022-10-26T05:05:35.801Z,101429.34
2022-10-26T05:08:04.554Z,101431.19
2022-10-26T05:10:33.021Z,101428.59
2022-10-26T05:13:02.257Z,101426.91
2022-10-26T05:15:30.845Z,101420.84
2022-10-26T05:18:02.828Z,101421.75
2022-10-26T05:20:33.964Z,101420.91
2022-10-26T05:23:04.839Z,101424.44
2022-10-26T05:25:35.831Z,101421.00
2022-10-26T05:28:06.249Z,101421.00
2022-10-26T05:30:34.663Z,101413.16
2022-10-26T05:33:04.561Z,101419.34
2022-10-26T05:35:33.390Z,101415.88
2022-10-26T05:38:02.054Z,101415.91
2022-10-26T05:40:30.290Z,101422.06
2022-10-26T05:43:02.872Z,101416.81
2022-10-26T05:45:31.740Z,101419.47
2022-10-26T05:48:02.691Z,101418.63
2022-10-26T05:50:32.835Z,101423.03
2022-10-26T05:53:01.270Z,101420.41
2022-10-26T05:55:30.424Z,101417.81
2022-10-26T05:57:59.408Z,101423.09
2022-10-26T06:00:30.454Z,101419.63
2022-10-26T06:03:15.046Z,101417.91
2022-10-26T06:05:53.866Z,101421.44
2022-10-26T06:08:24.580Z,101417.97
2022-10-26T06:10:54.452Z,101417.97
2022-10-26T06:13:23.919Z,101403.13
2022-10-26T06:16:08.770Z,101409.28
2022-10-26T06:18:47.930Z,101408.41
2022-10-26T06:21:36.078Z,101403.19
2022-10-26T06:24:10.548Z,101404.91
2022-10-26T06:26:48.170Z,101409.28
2022-10-26T06:29:29.353Z,101406.66
2022-10-26T06:31:59.033Z,101404.94
2022-10-26T06:34:31.708Z,101409.34
2022-10-26T06:37:02.989Z,101405.91
2022-10-26T06:39:37.374Z,101410.31
2022-10-26T06:42:08.821Z,101419.09
2022-10-26T06:44:38.450Z,101410.41
2022-10-26T06:47:11.306Z,101420.06
2022-10-26T06:49:44.103Z,101406.09
2022-10-26T06:52:18.926Z,101414.06
2022-10-26T06:54:52.718Z,101416.72
2022-10-26T06:57:23.929Z,101409.72
2022-10-26T06:59:55.916Z,101411.50
2022-10-26T07:02:25.140Z,101415.00
2022-10-26T07:04:54.435Z,101411.50
2022-10-26T07:07:27.177Z,101421.16
2022-10-26T07:09:55.433Z,101419.41
2022-10-26T07:12:23.819Z,101422.94
2022-10-26T07:14:52.004Z,101417.69
2022-10-26T07:17:20.149Z,101421.22
2022-10-26T07:19:51.692Z,101421.22
2022-10-26T07:22:20.000Z,101421.28
2022-10-26T07:24:51.415Z,101418.66
2022-10-26T07:27:20.629Z,101417.81
2022-10-26T07:29:48.869Z,101419.59
2022-10-26T07:32:17.091Z,101421.41
2022-10-26T07:34:45.343Z,101420.56
2022-10-26T07:37:13.836Z,101422.31
2022-10-26T07:39:42.039Z,101422.34
2022-10-26T07:42:11.614Z,101420.63
2022-10-26T07:44:39.849Z,101424.16
2022-10-26T07:47:08.025Z,101422.44
2022-10-26T07:49:36.212Z,101409.28
2022-10-26T07:52:04.703Z,101419.81
2022-10-26T07:54:33.315Z,101420.72
2022-10-26T07:57:02.232Z,101419.84
2022-10-26T07:59:32.077Z,101412.84
2022-10-26T08:02:00.451Z,101425.16
2022-10-26T08:04:28.788Z,101417.25
2022-10-26T08:06:57.013Z,101415.50
2022-10-26T08:09:25.355Z,101420.72
2022-10-26T08:11:53.581Z,101416.34
2022-10-26T08:14:22.259Z,101409.34
2022-10-26T08:16:52.656Z,101408.41
2022-10-26T08:19:21.306Z,101399.66
2022-10-26T08:21:49.650Z,101401.38
2022-10-26T08:24:17.763Z,101412.75
2022-10-26T08:26:45.921Z,101411.88
2022-10-26T08:29:14.173Z,101410.09
2022-10-26T08:31:42.448Z,101408.31
2022-10-26T08:34:12.150Z,101418.84
2022-10-26T08:36:40.308Z,101410.00
2022-10-26T08:39:10.866Z,101411.75
2022-10-26T08:41:43.731Z,101413.50
2022-10-26T08:44:26.104Z,101417.06
2022-10-26T08:46:59.891Z,101416.16
2022-10-26T08:49:39.702Z,101416.16
2022-10-26T08:52:12.710Z,101412.66
2022-10-26T08:54:45.579Z,101410.03
2022-10-26T08:57:22.140Z,101414.38
2022-10-26T08:59:57.663Z,101417.06
2022-10-26T09:02:26.167Z,101422.28
2022-10-26T09:04:59.377Z,101411.69
2022-10-26T09:07:52.895Z,101408.16
2022-10-26T09:10:37.329Z,101419.50
2022-10-26T09:13:17.226Z,101422.13
2022-10-26T09:16:04.475Z,101421.16
2022-10-26T09:21:42.942Z,101423.75
2022-10-26T09:24:16.469Z,101414.03
2022-10-26T09:26:55.718Z,101421.91
2022-10-26T09:29:29.976Z,101421.00
2022-10-26T09:32:02.835Z,101413.06
2022-10-26T09:34:38.486Z,101418.25
2022-10-26T09:37:18.155Z,101412.97
2022-10-26T09:39:56.584Z,101428.75
2022-10-26T09:42:35.253Z,101422.56
2022-10-26T09:45:14.636Z,101430.41
2022-10-26T09:47:49.257Z,101433.03
2022-10-26T09:50:24.467Z,101427.66
2022-10-26T09:52:54.059Z,101437.28
2022-10-26T09:55:22.937Z,101432.81
2022-10-26T09:57:56.022Z,101429.19
2022-10-26T10:00:27.198Z,101433.53
2022-10-26T10:02:57.626Z,101439.63
2022-10-26T10:05:50.236Z,101442.16
2022-10-26T10:08:23.607Z,101443.84
2022-10-26T10:11:01.755Z,101442.91
2022-10-26T10:13:32.566Z,101445.50
2022-10-26T10:16:06.899Z,101443.72
2022-10-26T10:18:36.451Z,101455.97
2022-10-26T10:21:05.986Z,101456.81
2022-10-26T10:23:38.008Z,101461.13
2022-10-26T10:26:10.984Z,101447.84
2022-10-26T10:28:42.468Z,101452.06
2022-10-26T10:31:22.836Z,101453.59
2022-10-26T10:33:52.962Z,101456.03
2022-10-26T10:36:24.217Z,101452.22
2022-10-26T10:38:55.055Z,101453.75
2022-10-26T10:41:28.644Z,101460.66
2022-10-26T10:44:04.637Z,101459.59
2022-10-26T10:46:33.016Z,101462.94
2022-10-26T10:49:07.777Z,101455.53
2022-10-26T10:51:41.580Z,101464.91
2022-10-26T10:54:24.746Z,101461.91
2022-10-26T10:56:55.100Z,101466.81
2022-10-26T10:59:46.340Z,101462.06
2022-10-26T11:03:03.392Z,101451.13
2022-10-26T11:06:01.742Z,101453.59
2022-10-26T11:08:36.414Z,101460.50
2022-10-26T11:11:11.720Z,101465.59
2022-10-26T11:13:50.140Z,101460.06
2022-10-26T11:16:24.713Z,101452.72
2022-10-26T11:18:59.952Z,101449.69
2022-10-26T11:21:31.106Z,101443.09
2022-10-26T11:24:13.255Z,101441.81
2022-10-26T11:26:48.815Z,101440.69
2022-10-26T11:29:31.819Z,101430.72
2022-10-26T11:32:11.730Z,101424.31
2022-10-26T11:34:47.419Z,101433.00
2022-10-26T11:37:25.284Z,101440.00
2022-10-26T11:40:05.721Z,101446.16
2022-10-26T11:42:42.344Z,101449.75
2022-10-26T11:45:17.723Z,101449.91
2022-10-26T11:47:53.235Z,101459.00
2022-10-26T11:50:24.715Z,101447.63
2022-10-26T11:52:57.588Z,101458.38
2022-10-26T11:55:25.805Z,101470.03
2022-10-26T11:57:56.131Z,101479.06
2022-10-26T12:00:24.930Z,101490.69
2022-10-26T12:02:59.237Z,101482.69
2022-10-26T12:05:36.892Z,101472.00
2022-10-26T12:08:11.102Z,101477.25
2022-10-26T12:10:43.884Z,101472.66
2022-10-26T12:13:27.318Z,101467.94
2022-10-26T12:16:04.338Z,101466.69
2022-10-26T12:18:57.235Z,101468.16
2022-10-26T12:21:29.666Z,101469.69
2022-10-26T12:24:00.574Z,101472.94
2022-10-26T12:26:54.995Z,101478.91
2022-10-26T12:29:37.315Z,101490.13
2022-10-26T12:32:45.547Z,101495.25
2022-10-26T12:35:44.095Z,101499.22
2022-10-26T12:38:57.710Z,101508.41
2022-10-26T12:41:33.176Z,101504.41
2022-10-26T12:46:55.464Z,101507.22
2022-10-26T12:49:59.565Z,101507.31
2022-10-26T12:52:52.385Z,101510.94
2022-10-26T12:55:56.235Z,101508.69
2022-10-26T12:59:10.023Z,101512.19
2022-10-26T13:02:02.063Z,101523.53
2022-10-26T13:05:24.846Z,101520.34
2022-10-26T13:07:55.177Z,101533.22
2022-10-26T13:10:26.774Z,101531.56
2022-10-26T13:12:58.388Z,101531.47
2022-10-26T13:15:32.086Z,101528.53
2022-10-26T13:18:13.601Z,101526.75
2022-10-26T13:21:04.365Z,101523.53
2022-10-26T13:23:37.467Z,101527.41
2022-10-26T13:26:12.888Z,101530.50
2022-10-26T13:28:51.072Z,101519.91
2022-10-26T13:31:57.927Z,101532.47
2022-10-26T13:34:32.202Z,101541.69
2022-10-26T13:37:15.773Z,101535.69
2022-10-26T13:39:48.292Z,101546.63
2022-10-26T13:42:21.269Z,101563.19
2022-10-26T13:44:56.014Z,101557.34
2022-10-26T13:47:30.020Z,101549.59
2022-10-26T13:50:06.400Z,101555.94
2022-10-26T13:52:39.707Z,101549.81
2022-10-26T13:55:16.162Z,101541.13
2022-10-26T13:57:46.754Z,101545.59
2022-10-26T14:00:21.194Z,101546.38
2022-10-26T14:02:49.957Z,101551.72
2022-10-26T14:05:20.416Z,101546.47
2022-10-26T14:07:56.590Z,101549.06
2022-10-26T14:10:29.580Z,101554.41
2022-10-26T14:12:58.933Z,101557.22
2022-10-26T14:15:30.887Z,101562.56
2022-10-26T14:18:02.258Z,101560.81
2022-10-26T14:20:33.510Z,101564.53
2022-10-26T14:23:01.775Z,101565.53
2022-10-26T14:25:42.692Z,101574.44
2022-10-26T14:28:29.042Z,101572.28
2022-10-26T14:31:16.541Z,101573.78
2022-10-26T14:33:47.850Z,101573.31
2022-10-26T14:36:18.614Z,101589.56
2022-10-26T14:38:50.567Z,101589.81
2022-10-26T14:41:19.990Z,101595.28
2022-10-26T14:43:48.521Z,101597.19
2022-10-26T14:46:18.989Z,101601.66
2022-10-26T14:48:58.017Z,101601.91
2022-10-26T14:51:31.961Z,101596.97
2022-10-26T14:54:02.418Z,101596.47
2022-10-26T14:56:40.953Z,101603.00
2022-10-26T14:59:18.855Z,101621.81
2022-10-26T15:01:53.776Z,101621.13
2022-10-26T15:04:36.781Z,101618.72
2022-10-26T15:07:21.240Z,101624.19
2022-10-26T15:09:52.328Z,101628.72
2022-10-26T15:12:31.264Z,101612.06
2022-10-26T15:15:18.211Z,101628.97
2022-10-26T15:17:53.199Z,101633.50
2022-10-26T15:20:24.263Z,101638.88
2022-10-26T15:22:56.207Z,101644.25
2022-10-26T15:25:27.278Z,101658.50
2022-10-26T15:27:55.773Z,101662.16
2022-10-26T15:30:27.662Z,101669.31
2022-10-26T15:32:56.871Z,101672.97
2022-10-26T15:35:33.151Z,101676.59
2022-10-26T15:38:02.777Z,101682.94
2022-10-26T15:40:33.115Z,101683.97
2022-10-26T15:43:02.527Z,101695.56
2022-10-26T15:45:34.968Z,101689.53
2022-10-26T15:48:21.216Z,101697.63
2022-10-26T15:50:49.484Z,101707.50
2022-10-26T15:53:22.666Z,101711.06
2022-10-26T15:55:54.259Z,101719.88
2022-10-26T15:58:22.877Z,101714.50
2022-10-26T16:00:51.428Z,101716.22
2022-10-26T16:03:23.000Z,101714.44
2022-10-26T16:05:58.203Z,101713.63
2022-10-26T16:08:29.273Z,101712.06
2022-10-26T16:10:57.880Z,101714.00
2022-10-26T16:13:26.645Z,101722.13
2022-10-26T16:15:54.925Z,101716.94
2022-10-26T16:18:23.139Z,101730.28
2022-10-26T16:20:51.343Z,101722.41
2022-10-26T16:23:19.580Z,101732.19
2022-10-26T16:25:49.159Z,101727.84
2022-10-26T16:28:18.560Z,101733.16
2022-10-26T16:30:46.931Z,101738.50
2022-10-26T16:33:15.299Z,101748.31
2022-10-26T16:35:43.668Z,101741.28
2022-10-26T16:38:11.926Z,101743.09
2022-10-26T16:40:42.594Z,101733.41
2022-10-26T16:43:12.513Z,101743.16
2022-10-26T16:45:42.237Z,101755.59
2022-10-26T16:48:14.943Z,101759.13
2022-10-26T16:50:43.325Z,101765.25
2022-10-26T16:53:11.678Z,101761.66
2022-10-26T16:55:39.942Z,101755.41
2022-10-26T16:58:08.483Z,101756.25
2022-10-26T17:00:38.714Z,101764.16
2022-10-26T17:03:07.317Z,101768.53
2022-10-26T17:05:35.527Z,101776.44
2022-10-26T17:08:04.089Z,101772.91
2022-10-26T17:10:32.287Z,101772.84
2022-10-26T17:13:00.750Z,101774.59
2022-10-26T17:15:29.285Z,101773.66
2022-10-26T17:17:59.005Z,101765.75
2022-10-26T17:20:27.426Z,101774.75
2022-10-26T17:22:58.220Z,101772.25
2022-10-26T17:25:26.465Z,101776.81
2022-10-26T17:27:55.439Z,101776.09
2022-10-26T17:30:23.861Z,101783.28
2022-10-26T17:32:52.449Z,101787.81
2022-10-26T17:35:22.651Z,101783.47
2022-10-26T17:37:51.886Z,101799.44
2022-10-26T17:40:20.332Z,101797.72
2022-10-26T17:42:48.793Z,101805.69
2022-10-26T17:45:17.300Z,101813.66
2022-10-26T17:47:48.375Z,101803.97
2022-10-26T17:50:17.039Z,101816.38
2022-10-26T17:52:46.579Z,101821.69
2022-10-26T17:55:17.693Z,101817.31
2022-10-26T17:57:45.895Z,101818.22
2022-10-26T18:00:15.486Z,101827.06
2022-10-26T18:02:43.950Z,101830.59
2022-10-26T18:05:12.529Z,101834.09
2022-10-26T18:07:42.995Z,101823.47
2022-10-26T18:10:33.202Z,101831.38
2022-10-26T18:13:01.628Z,101845.50
2022-10-26T18:15:29.907Z,101849.03
2022-10-26T18:17:58.538Z,101847.31
2022-10-26T18:20:29.767Z,101842.91
2022-10-26T18:22:58.272Z,101848.22
2022-10-26T18:25:28.467Z,101857.03
2022-10-26T18:27:56.900Z,101860.63
2022-10-26T18:30:25.981Z,101864.16
2022-10-26T18:32:54.693Z,101865.03
2022-10-26T18:35:23.229Z,101868.56
2022-10-26T18:37:51.712Z,101873.88
2022-10-26T18:40:20.230Z,101878.31
2022-10-26T18:42:49.840Z,101886.25
2022-10-26T18:45:18.302Z,101883.63
2022-10-26T18:47:46.577Z,101877.44
2022-10-26T18:50:15.027Z,101881.88
2022-10-26T18:52:44.912Z,101893.31
2022-10-26T18:55:13.152Z,101897.72
2022-10-26T18:57:41.479Z,101900.38
2022-10-26T19:00:13.418Z,101902.16
2022-10-26T19:02:41.635Z,101905.69
2022-10-26T19:05:10.329Z,101896.00
2022-10-26T19:07:39.426Z,101906.59
2022-10-26T19:10:09.647Z,101907.44
2022-10-26T19:12:37.889Z,101916.25
2022-10-26T19:15:07.496Z,101915.38
2022-10-26T19:17:37.033Z,101918.91
2022-10-26T19:20:06.670Z,101916.25
2022-10-26T19:22:34.914Z,101918.94
2022-10-26T19:25:03.878Z,101911.91
2022-10-26T19:27:32.232Z,101916.31
2022-10-26T19:30:00.464Z,101920.72
2022-10-26T19:32:29.047Z,101922.50
2022-10-26T19:34:58.849Z,101923.38
2022-10-26T19:37:31.209Z,101928.69
2022-10-26T19:39:59.648Z,101920.78
2022-10-26T19:42:29.282Z,101932.25
2022-10-26T19:44:57.561Z,101930.50
2022-10-26T19:47:25.790Z,101941.06
2022-10-26T19:49:54.007Z,101931.41
2022-10-26T19:52:23.646Z,101943.72
2022-10-26T19:54:51.868Z,101944.59
2022-10-26T19:57:20.062Z,101955.19
2022-10-26T19:59:48.292Z,101956.06
2022-10-26T20:02:16.938Z,101957.84
2022-10-26T20:04:45.811Z,101964.00
2022-10-26T20:07:15.659Z,101962.28
2022-10-26T20:09:45.333Z,101971.97
2022-10-26T20:12:13.957Z,101964.03
2022-10-26T20:14:42.156Z,101959.63
2022-10-26T20:17:10.319Z,101969.34
2022-10-26T20:19:38.618Z,101976.38
2022-10-26T20:22:06.971Z,101979.03
2022-10-26T20:24:35.709Z,101978.13
2022-10-26T20:27:05.470Z,101965.81
2022-10-26T20:29:33.686Z,101978.16
2022-10-26T20:32:02.013Z,101976.38
2022-10-26T20:34:30.642Z,101983.38
2022-10-26T20:36:58.815Z,101983.41
2022-10-26T20:39:27.775Z,101983.41
2022-10-26T20:41:57.032Z,101993.97
2022-10-26T20:44:32.288Z,101997.50
2022-10-26T20:47:01.134Z,101990.44
2022-10-26T20:49:30.049Z,101993.97
2022-10-26T20:52:20.855Z,101986.91
2022-10-26T20:54:55.690Z,102006.28
2022-10-26T20:57:31.711Z,101996.63
2022-10-26T21:00:07.444Z,101993.94
2022-10-26T21:02:35.702Z,102001.00
2022-10-26T21:05:04.229Z,102005.38
2022-10-26T21:07:32.400Z,102001.88
2022-10-26T21:10:00.562Z,102007.13
2022-10-26T21:12:28.707Z,102018.59
2022-10-26T21:14:56.921Z,102011.53
2022-10-26T21:17:26.506Z,102009.78
2022-10-26T21:19:54.677Z,102009.78
2022-10-26T21:22:23.583Z,102010.66
2022-10-26T21:24:51.748Z,102026.50
2022-10-26T21:27:19.901Z,102017.69
2022-10-26T21:29:48.172Z,102027.38
2022-10-26T21:32:16.369Z,102029.13
2022-10-26T21:34:46.046Z,102032.66
2022-10-26T21:37:14.199Z,102031.78
2022-10-26T21:39:42.421Z,102030.91
2022-10-26T21:42:10.709Z,102035.28
2022-10-26T21:44:41.464Z,102036.16
2022-10-26T21:47:10.403Z,102044.09
2022-10-26T21:49:39.119Z,102046.72
2022-10-26T21:52:09.376Z,102041.47
2022-10-26T21:54:37.541Z,102049.38
2022-10-26T21:57:05.867Z,102051.09
2022-10-26T21:59:34.048Z,102052.88
2022-10-26T22:02:02.456Z,102046.72
2022-10-26T22:04:30.849Z,102051.13
2022-10-26T22:06:58.959Z,102059.03
2022-10-26T22:09:28.582Z,102057.28
2022-10-26T22:11:56.817Z,102056.41
2022-10-26T22:14:25.143Z,102062.50
2022-10-26T22:16:53.339Z,102060.78
2022-10-26T22:19:21.561Z,102063.41
2022-10-26T22:21:50.119Z,102064.31
2022-10-26T22:24:18.712Z,102058.16
2022-10-26T22:26:50.024Z,102052.84
2022-10-26T22:29:18.431Z,102053.72
2022-10-26T22:31:46.733Z,102048.44
2022-10-26T22:34:17.035Z,102046.66
2022-10-26T22:36:46.048Z,102051.03
2022-10-26T22:39:14.445Z,102050.16
2022-10-26T22:41:42.918Z,102051.91
2022-10-26T22:44:12.455Z,102056.31
2022-10-26T22:46:40.726Z,102064.19
2022-10-26T22:49:08.908Z,102065.97
2022-10-26T22:51:37.098Z,102063.31
2022-10-26T22:54:06.503Z,102071.22
2022-10-26T22:56:37.147Z,102073.00
2022-10-26T22:59:08.401Z,102076.53
2022-10-26T23:01:41.837Z,102062.44
2022-10-26T23:04:12.776Z,102070.34
2022-10-26T23:06:41.716Z,102073.84
2022-10-26T23:09:09.964Z,102068.56
2022-10-26T23:11:38.151Z,102068.50
2022-10-26T23:14:06.412Z,102059.66
2022-10-26T23:16:34.585Z,102062.22
2022-10-26T23:19:04.170Z,102069.19
2022-10-26T23:21:32.360Z,102079.69
2022-10-26T23:24:00.595Z,102081.38
2022-10-26T23:26:28.870Z,102095.41
2022-10-26T23:28:57.200Z,102083.06
2022-10-26T23:31:28.415Z,102095.31
2022-10-26T23:33:57.877Z,102087.31
2022-10-26T23:36:27.460Z,102097.88
2022-10-26T23:38:55.648Z,102096.97
2022-10-26T23:41:23.873Z,102099.59
2022-10-26T23:43:52.104Z,102109.28
2022-10-26T23:46:20.354Z,102111.94
2022-10-26T23:48:48.541Z,102119.88
2022-10-26T23:51:17.581Z,102121.63
2022-10-26T23:53:47.129Z,102126.03
2022-10-26T23:56:15.288Z,102117.25
2022-10-26T23:58:43.437Z,102125.16
